CheckWX is a tool to help pilots better visualize weather data.  It is not intended as a substitute for an official pre-flight weather briefing.

11:46:46 UTC

KBGE METAR
Decatur County Industrial Airpark
Bainbridge, Georgia, USA
Current

32 mins ago

KBGE 251115Z AUTO 09006KT 10SM CLR 21/21 A2998 RMK AO2 T02120205
Observed
May-25 @ 11:15 UTC
Wind
  • 090° at 6 KTS
Visibility
Flight Rules
VFR
Cloud Levels
  • Clear skies
Temperature
21°C / 70°F
Dewpoint
20°C / 68°F
Humidity
94%
Altimeter
29.98" Hg
Pressure
1015.22 hPa
Previous

52 mins ago

KBGE 251055Z AUTO 10005KT 10SM CLR 21/20 A2997 RMK AO2 T02100203
Observed
May-25 @ 10:55 UTC
Wind
  • 100° at 5 KTS
Visibility
Flight Rules
VFR
Cloud Levels
  • Clear skies
Temperature
21°C / 70°F
Dewpoint
20°C / 68°F
Humidity
94%
Altimeter
29.97" Hg
Pressure
1014.92 hPa
Previous

1 hour ago

KBGE 251035Z AUTO 09007KT 10SM CLR 21/20 A2997 RMK AO2 T02100203
Observed
May-25 @ 10:35 UTC
Wind
  • 090° at 7 KTS
Visibility
Flight Rules
VFR
Cloud Levels
  • Clear skies
Temperature
21°C / 70°F
Dewpoint
20°C / 68°F
Humidity
94%
Altimeter
29.97" Hg
Pressure
1014.92 hPa